TRA84W GMMW-EHRD
Flight info
| Callsign | TRA84W |
|---|---|
| Flight time | 2h 39m |
| Altitude | 38000 |
| Route | ARI UL58 BERUM L58 LUVIV DCT OBAKA DCT PEPAS DCT VIBAS DCT TINEK DCT BLN DCT MORAL DCT BEXID DCT VTB DCT RBO DCT OSTIX DCT GASMO DCT DGO DCT CEGAM DCT BAGAS DCT SSN DCT LUSEM DCT LULUT DCT ADABI DCT BOKNO UN858 VANAD UN874 ARSAF DCT EGOZE DCT CMB DCT VEKIN DCT ADUTO N873 FERDI Y18 DENUT |
| Aircraft | B738/M-SDE2E3FGHIJ1RWXYZ/LB1 |
Departure
| Time | 2026-04-28 10:02 |
|---|---|
| Airport | Nador Al Aaroui International Airport (GMMW) |
Arrival
| Time | 2026-04-28 12:41 |
|---|---|
| Airport | Rotterdam The Hague Airport (EHRD) |
| Time | Latitude | Longitude | Altitude | Speed | Heading |
|---|---|---|---|---|---|
| 2026-04-28 09:32 | 34.99215 | -3.03061 | 592 ft | 0 kts | 350° |
| 2026-04-28 09:53 | 34.99199 | -3.03058 | 592 ft | 4 kts | 358° |
| 2026-04-28 09:54 | 34.99173 | -3.03062 | 592 ft | 4 kts | 20° |
| 2026-04-28 09:54 | 34.99151 | -3.03078 | 592 ft | 4 kts | 52° |
| 2026-04-28 09:54 | 34.99143 | -3.03098 | 592 ft | 0 kts | 78° |
| 2026-04-28 09:56 | 34.99143 | -3.03097 | 592 ft | 0 kts | 78° |
| 2026-04-28 09:56 | 34.99144 | -3.03086 | 592 ft | 3 kts | 79° |
| 2026-04-28 09:56 | 34.99152 | -3.03040 | 592 ft | 8 kts | 79° |
| 2026-04-28 09:57 | 34.99153 | -3.02970 | 591 ft | 8 kts | 120° |
| 2026-04-28 09:57 | 34.99103 | -3.02940 | 591 ft | 8 kts | 166° |
| 2026-04-28 09:57 | 34.99048 | -3.02925 | 591 ft | 8 kts | 168° |
| 2026-04-28 09:57 | 34.98994 | -3.02912 | 591 ft | 8 kts | 171° |
| 2026-04-28 09:58 | 34.98935 | -3.02911 | 590 ft | 9 kts | 199° |
| 2026-04-28 09:58 | 34.98894 | -3.02977 | 590 ft | 12 kts | 256° |
| 2026-04-28 09:58 | 34.98873 | -3.03097 | 592 ft | 17 kts | 258° |
| 2026-04-28 09:58 | 34.98846 | -3.03251 | 596 ft | 20 kts | 258° |
| 2026-04-28 09:59 | 34.98814 | -3.03438 | 596 ft | 25 kts | 258° |
| 2026-04-28 09:59 | 34.98777 | -3.03651 | 598 ft | 25 kts | 258° |
| 2026-04-28 09:59 | 34.98742 | -3.03853 | 599 ft | 23 kts | 258° |
| 2026-04-28 09:59 | 34.98709 | -3.04042 | 600 ft | 23 kts | 258° |
| 2026-04-28 10:00 | 34.98678 | -3.04217 | 600 ft | 16 kts | 258° |
| 2026-04-28 10:00 | 34.98685 | -3.04339 | 601 ft | 11 kts | 287° |
| 2026-04-28 10:00 | 34.98679 | -3.04381 | 602 ft | 4 kts | 222° |
| 2026-04-28 10:00 | 34.98655 | -3.04380 | 602 ft | 4 kts | 143° |
| 2026-04-28 10:01 | 34.98650 | -3.04352 | 601 ft | 4 kts | 74° |
| 2026-04-28 10:01 | 34.98660 | -3.04324 | 601 ft | 4 kts | 72° |
| 2026-04-28 10:01 | 34.98671 | -3.04266 | 600 ft | 24 kts | 78° |
| 2026-04-28 10:01 | 34.98765 | -3.03725 | 599 ft | 104 kts | 78° |
| 2026-04-28 10:02 | 34.98953 | -3.02586 | 680 ft | 162 kts | 78° |
| 2026-04-28 10:02 | 34.99160 | -3.01243 | 1580 ft | 155 kts | 78° |
| 2026-04-28 10:02 | 34.99370 | -2.99938 | 2508 ft | 161 kts | 78° |
| 2026-04-28 10:02 | 34.99599 | -2.98460 | 2883 ft | 194 kts | 75° |
| 2026-04-28 10:03 | 35.00380 | -2.97025 | 3113 ft | 222 kts | 35° |
| 2026-04-28 10:03 | 35.01903 | -2.96554 | 3646 ft | 236 kts | 358° |
| 2026-04-28 10:03 | 35.03529 | -2.96925 | 4396 ft | 241 kts | 347° |
| 2026-04-28 10:03 | 35.05201 | -2.97490 | 4843 ft | 262 kts | 346° |
| 2026-04-28 10:04 | 35.06988 | -2.98128 | 5587 ft | 270 kts | 346° |
| 2026-04-28 10:04 | 35.08802 | -2.98773 | 6568 ft | 274 kts | 346° |
| 2026-04-28 10:04 | 35.10654 | -2.99421 | 7383 ft | 281 kts | 345° |
| 2026-04-28 10:04 | 35.12560 | -3.00075 | 8173 ft | 288 kts | 345° |
| 2026-04-28 10:05 | 35.14521 | -3.00741 | 8965 ft | 296 kts | 344° |
| 2026-04-28 10:05 | 35.16514 | -3.01412 | 9868 ft | 299 kts | 343° |
| 2026-04-28 10:05 | 35.18553 | -3.02094 | 10510 ft | 312 kts | 344° |
| 2026-04-28 10:05 | 35.20743 | -3.02824 | 10726 ft | 340 kts | 344° |
| 2026-04-28 10:06 | 35.23066 | -3.03594 | 11313 ft | 349 kts | 344° |
| 2026-04-28 10:06 | 35.25426 | -3.04375 | 12096 ft | 353 kts | 344° |
| 2026-04-28 10:06 | 35.27813 | -3.05163 | 12912 ft | 356 kts | 344° |
| 2026-04-28 10:06 | 35.30217 | -3.05957 | 13692 ft | 362 kts | 344° |
| 2026-04-28 10:07 | 35.32663 | -3.06765 | 14399 ft | 365 kts | 344° |
| 2026-04-28 10:07 | 35.35124 | -3.07578 | 15172 ft | 368 kts | 344° |
| 2026-04-28 10:07 | 35.37610 | -3.08399 | 15838 ft | 373 kts | 344° |
| 2026-04-28 10:07 | 35.40131 | -3.09233 | 16518 ft | 378 kts | 344° |
| 2026-04-28 10:08 | 35.42675 | -3.10075 | 17243 ft | 381 kts | 344° |
| 2026-04-28 10:08 | 35.45249 | -3.10928 | 17962 ft | 385 kts | 344° |
| 2026-04-28 10:08 | 35.47818 | -3.11779 | 18540 ft | 390 kts | 344° |
| 2026-04-28 10:08 | 35.50444 | -3.12650 | 19182 ft | 392 kts | 345° |
| 2026-04-28 10:09 | 35.53098 | -3.13531 | 19738 ft | 397 kts | 345° |
| 2026-04-28 10:09 | 35.55811 | -3.14432 | 20406 ft | 399 kts | 345° |
| 2026-04-28 10:09 | 35.58495 | -3.15324 | 20998 ft | 402 kts | 345° |
| 2026-04-28 10:09 | 35.61211 | -3.16227 | 21556 ft | 406 kts | 345° |
| 2026-04-28 10:10 | 35.63944 | -3.17137 | 22190 ft | 408 kts | 346° |
| 2026-04-28 10:10 | 35.66700 | -3.18054 | 22690 ft | 413 kts | 346° |
| 2026-04-28 10:10 | 35.69436 | -3.18966 | 23326 ft | 414 kts | 346° |
| 2026-04-28 10:10 | 35.72267 | -3.19911 | 23787 ft | 418 kts | 346° |
| 2026-04-28 10:11 | 35.75039 | -3.20836 | 24353 ft | 417 kts | 346° |
| 2026-04-28 10:11 | 35.77841 | -3.21773 | 24876 ft | 418 kts | 346° |
| 2026-04-28 10:11 | 35.80661 | -3.22716 | 25285 ft | 422 kts | 346° |
| 2026-04-28 10:11 | 35.83502 | -3.23657 | 25755 ft | 423 kts | 347° |
| 2026-04-28 10:12 | 35.86373 | -3.24472 | 26237 ft | 424 kts | 349° |
| 2026-04-28 10:12 | 35.89273 | -3.25193 | 26700 ft | 425 kts | 351° |
| 2026-04-28 10:12 | 35.92185 | -3.25884 | 27124 ft | 428 kts | 351° |
| 2026-04-28 10:12 | 35.95119 | -3.26577 | 27517 ft | 430 kts | 350° |
| 2026-04-28 10:13 | 35.98068 | -3.27283 | 27929 ft | 433 kts | 350° |
| 2026-04-28 10:13 | 36.01025 | -3.28004 | 28340 ft | 435 kts | 350° |
| 2026-04-28 10:13 | 36.03998 | -3.28737 | 28734 ft | 437 kts | 349° |
| 2026-04-28 10:13 | 36.06991 | -3.29480 | 29087 ft | 440 kts | 349° |
| 2026-04-28 10:14 | 36.09999 | -3.30230 | 29432 ft | 443 kts | 349° |
| 2026-04-28 10:14 | 36.13025 | -3.30986 | 29777 ft | 445 kts | 349° |
| 2026-04-28 10:14 | 36.16066 | -3.31747 | 30116 ft | 447 kts | 349° |
| 2026-04-28 10:14 | 36.19124 | -3.32512 | 30368 ft | 450 kts | 349° |
| 2026-04-28 10:15 | 36.22208 | -3.33284 | 30611 ft | 453 kts | 349° |
| 2026-04-28 10:15 | 36.25304 | -3.34059 | 30872 ft | 456 kts | 349° |
| 2026-04-28 10:15 | 36.28419 | -3.34840 | 31171 ft | 457 kts | 348° |
| 2026-04-28 10:15 | 36.31531 | -3.35620 | 31525 ft | 456 kts | 348° |
| 2026-04-28 10:16 | 36.34641 | -3.36401 | 31897 ft | 456 kts | 348° |
| 2026-04-28 10:16 | 36.37746 | -3.37181 | 32259 ft | 455 kts | 348° |
| 2026-04-28 10:16 | 36.40850 | -3.37961 | 32602 ft | 455 kts | 348° |
| 2026-04-28 10:16 | 36.43955 | -3.38740 | 32946 ft | 455 kts | 348° |
| 2026-04-28 10:17 | 36.47056 | -3.39518 | 33289 ft | 455 kts | 348° |
| 2026-04-28 10:17 | 36.50154 | -3.40294 | 33655 ft | 453 kts | 348° |
| 2026-04-28 10:17 | 36.53200 | -3.41057 | 34028 ft | 452 kts | 348° |
| 2026-04-28 10:17 | 36.56274 | -3.41829 | 34342 ft | 451 kts | 348° |
| 2026-04-28 10:18 | 36.59346 | -3.42602 | 34644 ft | 450 kts | 348° |
| 2026-04-28 10:18 | 36.62409 | -3.43373 | 34954 ft | 448 kts | 348° |
| 2026-04-28 10:18 | 36.65460 | -3.44142 | 35278 ft | 447 kts | 347° |
| 2026-04-28 10:18 | 36.68503 | -3.44915 | 35568 ft | 446 kts | 347° |
| 2026-04-28 10:19 | 36.71545 | -3.45691 | 35843 ft | 446 kts | 347° |
| 2026-04-28 10:19 | 36.74580 | -3.46466 | 36129 ft | 445 kts | 347° |
| 2026-04-28 10:19 | 36.77606 | -3.47240 | 36399 ft | 444 kts | 347° |
| 2026-04-28 10:19 | 36.80635 | -3.48015 | 36655 ft | 444 kts | 347° |
| 2026-04-28 10:20 | 36.83658 | -3.48788 | 36919 ft | 444 kts | 347° |
| 2026-04-28 10:20 | 36.86681 | -3.49562 | 37192 ft | 443 kts | 347° |
| 2026-04-28 10:20 | 36.89699 | -3.50335 | 37443 ft | 443 kts | 347° |
| 2026-04-28 10:20 | 36.92717 | -3.51109 | 37671 ft | 443 kts | 347° |
| 2026-04-28 10:21 | 36.95739 | -3.51884 | 37926 ft | 443 kts | 347° |
| 2026-04-28 10:21 | 36.98762 | -3.52661 | 37961 ft | 446 kts | 347° |
| 2026-04-28 10:21 | 37.04831 | -3.54221 | 37987 ft | 444 kts | 347° |
| 2026-04-28 10:22 | 37.10860 | -3.55773 | 37986 ft | 440 kts | 347° |
| 2026-04-28 10:22 | 37.16839 | -3.57315 | 37989 ft | 437 kts | 347° |
| 2026-04-28 10:23 | 37.22780 | -3.58848 | 37990 ft | 435 kts | 347° |
| 2026-04-28 10:23 | 37.28711 | -3.60382 | 37988 ft | 435 kts | 347° |
| 2026-04-28 10:24 | 37.34640 | -3.61917 | 37963 ft | 436 kts | 347° |
| 2026-04-28 10:24 | 37.40632 | -3.63194 | 37941 ft | 439 kts | 357° |
| 2026-04-28 10:25 | 37.46757 | -3.63149 | 37949 ft | 442 kts | 0° |
| 2026-04-28 10:25 | 37.52920 | -3.63008 | 37940 ft | 444 kts | 359° |
| 2026-04-28 10:26 | 37.59121 | -3.62943 | 37943 ft | 447 kts | 359° |
| 2026-04-28 10:26 | 37.65350 | -3.62899 | 37934 ft | 449 kts | 359° |
| 2026-04-28 10:27 | 37.71607 | -3.62851 | 37939 ft | 450 kts | 359° |
| 2026-04-28 10:27 | 37.77877 | -3.62800 | 37927 ft | 451 kts | 359° |
| 2026-04-28 10:28 | 37.84146 | -3.62749 | 37922 ft | 450 kts | 359° |
| 2026-04-28 10:29 | 37.92464 | -3.62683 | 37923 ft | 448 kts | 359° |
| 2026-04-28 10:29 | 37.98681 | -3.62633 | 37924 ft | 446 kts | 359° |
| 2026-04-28 10:30 | 38.04874 | -3.62584 | 37925 ft | 444 kts | 359° |
| 2026-04-28 10:30 | 38.11048 | -3.62534 | 37918 ft | 443 kts | 359° |
| 2026-04-28 10:31 | 38.17205 | -3.62408 | 37923 ft | 443 kts | 1° |
| 2026-04-28 10:31 | 38.23355 | -3.61836 | 37919 ft | 443 kts | 3° |
| 2026-04-28 10:32 | 38.29456 | -3.61169 | 37941 ft | 443 kts | 3° |
| 2026-04-28 10:32 | 38.35650 | -3.60528 | 37924 ft | 444 kts | 3° |
| 2026-04-28 10:33 | 38.41820 | -3.59919 | 37935 ft | 445 kts | 3° |
| 2026-04-28 10:33 | 38.47964 | -3.59321 | 37930 ft | 447 kts | 3° |
| 2026-04-28 10:34 | 38.54169 | -3.58716 | 37934 ft | 447 kts | 2° |
| 2026-04-28 10:34 | 38.60372 | -3.58109 | 37930 ft | 448 kts | 2° |
| 2026-04-28 10:35 | 38.66597 | -3.57498 | 37944 ft | 448 kts | 3° |
| 2026-04-28 10:35 | 38.72824 | -3.56885 | 37936 ft | 449 kts | 3° |
| 2026-04-28 10:36 | 38.79058 | -3.56271 | 37936 ft | 449 kts | 2° |
| 2026-04-28 10:36 | 38.85285 | -3.55656 | 37938 ft | 449 kts | 2° |
| 2026-04-28 10:37 | 38.91508 | -3.55042 | 37941 ft | 448 kts | 2° |
| 2026-04-28 10:37 | 38.97723 | -3.54426 | 37937 ft | 447 kts | 2° |
| 2026-04-28 10:38 | 39.03928 | -3.53812 | 37941 ft | 446 kts | 2° |
| 2026-04-28 10:38 | 39.10117 | -3.53202 | 37936 ft | 446 kts | 2° |
| 2026-04-28 10:39 | 39.16300 | -3.52591 | 37952 ft | 445 kts | 2° |
| 2026-04-28 10:39 | 39.22430 | -3.51984 | 37945 ft | 444 kts | 2° |
| 2026-04-28 10:40 | 39.28589 | -3.51373 | 37956 ft | 444 kts | 2° |
| 2026-04-28 10:40 | 39.34749 | -3.50761 | 37953 ft | 444 kts | 2° |
| 2026-04-28 10:41 | 39.40912 | -3.50148 | 37952 ft | 444 kts | 2° |
| 2026-04-28 10:41 | 39.47075 | -3.49533 | 37954 ft | 444 kts | 2° |
| 2026-04-28 10:42 | 39.53236 | -3.48917 | 37966 ft | 444 kts | 2° |
| 2026-04-28 10:42 | 39.59404 | -3.48299 | 37951 ft | 445 kts | 2° |
| 2026-04-28 10:43 | 39.65577 | -3.47674 | 37956 ft | 445 kts | 2° |
| 2026-04-28 10:43 | 39.71751 | -3.47046 | 37959 ft | 445 kts | 2° |
| 2026-04-28 10:44 | 39.77933 | -3.46413 | 37965 ft | 446 kts | 3° |
| 2026-04-28 10:44 | 39.84105 | -3.45355 | 37966 ft | 448 kts | 7° |
| 2026-04-28 10:45 | 39.90220 | -3.44060 | 37962 ft | 448 kts | 7° |
| 2026-04-28 10:45 | 39.96377 | -3.42769 | 37959 ft | 448 kts | 7° |
| 2026-04-28 10:46 | 40.02543 | -3.41516 | 37966 ft | 448 kts | 6° |
| 2026-04-28 10:46 | 40.08707 | -3.40279 | 37963 ft | 448 kts | 6° |
| 2026-04-28 10:47 | 40.14874 | -3.39042 | 37967 ft | 448 kts | 6° |
| 2026-04-28 10:47 | 40.21033 | -3.37803 | 37978 ft | 448 kts | 6° |
| 2026-04-28 10:48 | 40.27203 | -3.36558 | 37968 ft | 448 kts | 6° |
| 2026-04-28 10:48 | 40.33360 | -3.35313 | 37980 ft | 448 kts | 6° |
| 2026-04-28 10:49 | 40.39513 | -3.34067 | 38003 ft | 447 kts | 6° |
| 2026-04-28 10:49 | 40.45665 | -3.32819 | 37983 ft | 447 kts | 6° |
| 2026-04-28 10:50 | 40.51812 | -3.31570 | 37992 ft | 447 kts | 6° |
| 2026-04-28 10:50 | 40.57954 | -3.30319 | 37985 ft | 446 kts | 6° |
| 2026-04-28 10:51 | 40.64077 | -3.29070 | 37986 ft | 446 kts | 6° |
| 2026-04-28 10:51 | 40.70205 | -3.27817 | 37971 ft | 445 kts | 6° |
| 2026-04-28 10:52 | 40.76329 | -3.26563 | 37983 ft | 445 kts | 6° |
| 2026-04-28 10:52 | 40.82450 | -3.25307 | 37974 ft | 445 kts | 6° |
| 2026-04-28 10:53 | 40.88578 | -3.24021 | 37958 ft | 446 kts | 7° |
| 2026-04-28 10:53 | 40.94703 | -3.22640 | 37969 ft | 447 kts | 7° |
| 2026-04-28 10:54 | 41.00831 | -3.21245 | 37979 ft | 447 kts | 7° |
| 2026-04-28 10:54 | 41.06953 | -3.19860 | 37965 ft | 447 kts | 7° |
| 2026-04-28 10:55 | 41.13080 | -3.18477 | 37976 ft | 446 kts | 7° |
| 2026-04-28 10:55 | 41.19213 | -3.17092 | 37954 ft | 447 kts | 7° |
| 2026-04-28 10:56 | 41.25342 | -3.15704 | 37967 ft | 447 kts | 7° |
| 2026-04-28 10:56 | 41.31484 | -3.14310 | 37965 ft | 447 kts | 7° |
| 2026-04-28 10:57 | 41.37583 | -3.12924 | 37956 ft | 448 kts | 7° |
| 2026-04-28 10:57 | 41.43728 | -3.11524 | 37958 ft | 448 kts | 7° |
| 2026-04-28 10:58 | 41.49870 | -3.10122 | 37967 ft | 448 kts | 7° |
| 2026-04-28 10:58 | 41.56010 | -3.08729 | 37948 ft | 448 kts | 7° |
| 2026-04-28 10:59 | 41.62151 | -3.07341 | 37959 ft | 447 kts | 7° |
| 2026-04-28 10:59 | 41.68285 | -3.05950 | 37956 ft | 447 kts | 7° |
| 2026-04-28 11:00 | 41.74423 | -3.04554 | 37956 ft | 447 kts | 7° |
| 2026-04-28 11:00 | 41.80552 | -3.03147 | 37960 ft | 447 kts | 7° |
| 2026-04-28 11:01 | 41.86682 | -3.01735 | 37954 ft | 447 kts | 7° |
| 2026-04-28 11:01 | 41.92816 | -3.00319 | 37952 ft | 448 kts | 7° |
| 2026-04-28 11:02 | 41.98958 | -2.98900 | 37973 ft | 447 kts | 7° |
| 2026-04-28 11:02 | 42.05096 | -2.97479 | 37976 ft | 448 kts | 7° |
| 2026-04-28 11:03 | 42.11243 | -2.96053 | 37985 ft | 448 kts | 7° |
| 2026-04-28 11:03 | 42.17389 | -2.94621 | 37981 ft | 448 kts | 7° |
| 2026-04-28 11:04 | 42.23532 | -2.93181 | 37981 ft | 448 kts | 7° |
| 2026-04-28 11:04 | 42.29677 | -2.91754 | 37981 ft | 448 kts | 7° |
| 2026-04-28 11:05 | 42.35778 | -2.90331 | 37984 ft | 448 kts | 7° |
| 2026-04-28 11:05 | 42.41921 | -2.88813 | 37982 ft | 451 kts | 13° |
| 2026-04-28 11:05 | 42.44877 | -2.87370 | 37987 ft | 454 kts | 24° |
| 2026-04-28 11:06 | 42.47636 | -2.85280 | 37985 ft | 456 kts | 33° |
| 2026-04-28 11:06 | 42.52494 | -2.79708 | 37987 ft | 459 kts | 41° |
| 2026-04-28 11:07 | 42.57206 | -2.73859 | 37994 ft | 460 kts | 41° |
| 2026-04-28 11:07 | 42.61958 | -2.68027 | 37997 ft | 461 kts | 40° |
| 2026-04-28 11:08 | 42.66746 | -2.62224 | 38000 ft | 462 kts | 40° |
| 2026-04-28 11:08 | 42.71543 | -2.56410 | 38017 ft | 462 kts | 40° |
| 2026-04-28 11:09 | 42.76345 | -2.50576 | 38013 ft | 463 kts | 40° |
| 2026-04-28 11:09 | 42.81142 | -2.44737 | 38018 ft | 462 kts | 40° |
| 2026-04-28 11:10 | 42.85930 | -2.38889 | 38006 ft | 462 kts | 40° |
| 2026-04-28 11:10 | 42.90716 | -2.33033 | 38006 ft | 462 kts | 40° |
| 2026-04-28 11:11 | 42.95495 | -2.27173 | 38011 ft | 461 kts | 40° |
| 2026-04-28 11:11 | 43.00265 | -2.21306 | 38010 ft | 461 kts | 40° |
| 2026-04-28 11:12 | 43.05024 | -2.15421 | 38006 ft | 461 kts | 41° |
| 2026-04-28 11:12 | 43.09771 | -2.09533 | 38013 ft | 460 kts | 41° |
| 2026-04-28 11:13 | 43.14517 | -2.03648 | 38016 ft | 460 kts | 40° |
| 2026-04-28 11:13 | 43.19225 | -1.97802 | 38017 ft | 460 kts | 41° |
| 2026-04-28 11:14 | 43.23959 | -1.91912 | 38021 ft | 460 kts | 41° |
| 2026-04-28 11:14 | 43.28688 | -1.86014 | 38024 ft | 460 kts | 41° |
| 2026-04-28 11:15 | 43.33767 | -1.80765 | 38023 ft | 456 kts | 26° |
| 2026-04-28 11:15 | 43.39339 | -1.76612 | 38023 ft | 456 kts | 28° |
| 2026-04-28 11:16 | 43.44684 | -1.71888 | 38028 ft | 457 kts | 32° |
| 2026-04-28 11:16 | 43.49952 | -1.66965 | 38029 ft | 458 kts | 32° |
| 2026-04-28 11:17 | 43.55250 | -1.62075 | 38022 ft | 458 kts | 32° |
| 2026-04-28 11:17 | 43.60574 | -1.57223 | 38029 ft | 459 kts | 31° |
| 2026-04-28 11:18 | 43.65013 | -1.53189 | 38023 ft | 460 kts | 31° |
| 2026-04-28 11:18 | 43.70364 | -1.48326 | 38028 ft | 461 kts | 31° |
| 2026-04-28 11:19 | 43.75724 | -1.43441 | 38025 ft | 462 kts | 31° |
| 2026-04-28 11:19 | 43.81084 | -1.38529 | 38024 ft | 463 kts | 31° |
| 2026-04-28 11:20 | 43.86454 | -1.33604 | 38027 ft | 463 kts | 31° |
| 2026-04-28 11:20 | 43.91831 | -1.28659 | 38025 ft | 464 kts | 31° |
| 2026-04-28 11:21 | 43.97213 | -1.23709 | 38014 ft | 464 kts | 31° |
| 2026-04-28 11:21 | 44.02598 | -1.18743 | 38012 ft | 464 kts | 31° |
| 2026-04-28 11:22 | 44.07971 | -1.13755 | 38003 ft | 465 kts | 32° |
| 2026-04-28 11:22 | 44.13348 | -1.08761 | 38021 ft | 464 kts | 32° |
| 2026-04-28 11:23 | 44.18725 | -1.03770 | 38032 ft | 464 kts | 32° |
| 2026-04-28 11:23 | 44.24095 | -0.98773 | 38019 ft | 464 kts | 32° |
| 2026-04-28 11:24 | 44.29467 | -0.93762 | 38018 ft | 464 kts | 32° |
| 2026-04-28 11:24 | 44.34835 | -0.88745 | 38025 ft | 464 kts | 32° |
| 2026-04-28 11:25 | 44.40235 | -0.83796 | 38011 ft | 463 kts | 26° |
| 2026-04-28 11:25 | 44.46052 | -0.80050 | 38022 ft | 460 kts | 20° |
| 2026-04-28 11:26 | 44.51911 | -0.76571 | 38021 ft | 461 kts | 20° |
| 2026-04-28 11:26 | 44.57810 | -0.73036 | 38023 ft | 461 kts | 20° |
| 2026-04-28 11:27 | 44.63743 | -0.69445 | 38017 ft | 462 kts | 20° |
| 2026-04-28 11:27 | 44.69601 | -0.65852 | 38027 ft | 462 kts | 20° |
| 2026-04-28 11:28 | 44.75488 | -0.62222 | 38022 ft | 462 kts | 20° |
| 2026-04-28 11:28 | 44.81381 | -0.58583 | 38025 ft | 463 kts | 20° |
| 2026-04-28 11:29 | 44.87280 | -0.54934 | 38021 ft | 463 kts | 20° |
| 2026-04-28 11:29 | 44.93181 | -0.51276 | 38023 ft | 463 kts | 20° |
| 2026-04-28 11:30 | 44.99077 | -0.47614 | 38014 ft | 464 kts | 20° |
| 2026-04-28 11:30 | 45.07974 | -0.42072 | 38014 ft | 467 kts | 19° |
| 2026-04-28 11:31 | 45.13925 | -0.38355 | 38016 ft | 468 kts | 19° |
| 2026-04-28 11:31 | 45.19882 | -0.34624 | 38007 ft | 468 kts | 19° |
| 2026-04-28 11:32 | 45.25832 | -0.30889 | 38011 ft | 467 kts | 19° |
| 2026-04-28 11:32 | 45.31776 | -0.27150 | 38000 ft | 467 kts | 19° |
| 2026-04-28 11:33 | 45.37705 | -0.23411 | 38006 ft | 466 kts | 19° |
| 2026-04-28 11:33 | 45.43619 | -0.19673 | 38021 ft | 465 kts | 19° |
| 2026-04-28 11:34 | 45.49521 | -0.15935 | 38016 ft | 464 kts | 19° |
| 2026-04-28 11:34 | 45.55412 | -0.12195 | 38020 ft | 463 kts | 19° |
| 2026-04-28 11:35 | 45.61253 | -0.08478 | 38017 ft | 462 kts | 20° |
| 2026-04-28 11:35 | 45.67114 | -0.04739 | 38018 ft | 461 kts | 20° |
| 2026-04-28 11:36 | 45.72972 | -0.00996 | 38019 ft | 461 kts | 20° |
| 2026-04-28 11:36 | 45.78826 | 0.02755 | 38021 ft | 460 kts | 20° |
| 2026-04-28 11:37 | 45.84670 | 0.06508 | 37996 ft | 460 kts | 20° |
| 2026-04-28 11:37 | 45.90518 | 0.10272 | 38002 ft | 461 kts | 20° |
| 2026-04-28 11:38 | 45.96370 | 0.14048 | 38011 ft | 461 kts | 20° |
| 2026-04-28 11:38 | 46.02232 | 0.17839 | 38006 ft | 462 kts | 20° |
| 2026-04-28 11:39 | 46.08103 | 0.21644 | 38017 ft | 463 kts | 20° |
| 2026-04-28 11:39 | 46.13986 | 0.25466 | 38033 ft | 464 kts | 20° |
| 2026-04-28 11:40 | 46.19892 | 0.29313 | 38012 ft | 466 kts | 20° |
| 2026-04-28 11:40 | 46.25807 | 0.33175 | 38019 ft | 467 kts | 21° |
| 2026-04-28 11:41 | 46.31736 | 0.37055 | 38021 ft | 468 kts | 21° |
| 2026-04-28 11:41 | 46.37672 | 0.40949 | 38020 ft | 469 kts | 21° |
| 2026-04-28 11:42 | 46.43611 | 0.44855 | 38021 ft | 469 kts | 21° |
| 2026-04-28 11:42 | 46.49556 | 0.48774 | 38023 ft | 469 kts | 21° |
| 2026-04-28 11:43 | 46.55503 | 0.52662 | 38017 ft | 468 kts | 18° |
| 2026-04-28 11:43 | 46.61721 | 0.55150 | 38032 ft | 462 kts | 8° |
| 2026-04-28 11:44 | 46.68004 | 0.57096 | 38029 ft | 462 kts | 8° |
| 2026-04-28 11:44 | 46.74285 | 0.59092 | 38025 ft | 462 kts | 8° |
| 2026-04-28 11:45 | 46.80557 | 0.61156 | 38030 ft | 462 kts | 9° |
| 2026-04-28 11:45 | 46.86834 | 0.63243 | 38036 ft | 462 kts | 9° |
| 2026-04-28 11:46 | 46.93109 | 0.65333 | 38033 ft | 463 kts | 9° |
| 2026-04-28 11:46 | 46.99379 | 0.67422 | 38058 ft | 462 kts | 9° |
| 2026-04-28 11:47 | 47.05667 | 0.69385 | 38033 ft | 459 kts | 2° |
| 2026-04-28 11:47 | 47.12010 | 0.70109 | 38054 ft | 457 kts | 359° |
| 2026-04-28 11:48 | 47.18307 | 0.70658 | 38065 ft | 456 kts | 359° |
| 2026-04-28 11:48 | 47.24645 | 0.71275 | 38074 ft | 457 kts | 0° |
| 2026-04-28 11:49 | 47.30978 | 0.71936 | 38089 ft | 456 kts | 0° |
| 2026-04-28 11:49 | 47.37311 | 0.72605 | 38071 ft | 456 kts | 0° |
| 2026-04-28 11:50 | 47.43643 | 0.73272 | 38080 ft | 456 kts | 0° |
| 2026-04-28 11:50 | 47.49965 | 0.74143 | 38068 ft | 459 kts | 7° |
| 2026-04-28 11:51 | 47.56115 | 0.76890 | 38072 ft | 463 kts | 16° |
| 2026-04-28 11:51 | 47.62203 | 0.80024 | 38072 ft | 463 kts | 16° |
| 2026-04-28 11:52 | 47.68299 | 0.83087 | 38068 ft | 463 kts | 15° |
| 2026-04-28 11:52 | 47.74410 | 0.86103 | 38071 ft | 463 kts | 15° |
| 2026-04-28 11:53 | 47.80523 | 0.89123 | 38073 ft | 463 kts | 15° |
| 2026-04-28 11:53 | 47.86631 | 0.92163 | 38066 ft | 463 kts | 16° |
| 2026-04-28 11:54 | 47.92736 | 0.95251 | 38075 ft | 463 kts | 16° |
| 2026-04-28 11:54 | 47.98836 | 0.98348 | 38076 ft | 463 kts | 16° |
| 2026-04-28 11:55 | 48.04939 | 1.01449 | 38070 ft | 463 kts | 16° |
| 2026-04-28 11:55 | 48.11040 | 1.04560 | 38077 ft | 463 kts | 16° |
| 2026-04-28 11:56 | 48.17135 | 1.07666 | 38080 ft | 463 kts | 16° |
| 2026-04-28 11:56 | 48.23221 | 1.10777 | 38081 ft | 462 kts | 17° |
| 2026-04-28 11:57 | 48.29305 | 1.13877 | 38077 ft | 461 kts | 16° |
| 2026-04-28 11:57 | 48.35331 | 1.16951 | 38082 ft | 460 kts | 16° |
| 2026-04-28 11:58 | 48.41390 | 1.20052 | 38076 ft | 459 kts | 17° |
| 2026-04-28 11:58 | 48.47424 | 1.23149 | 38086 ft | 458 kts | 17° |
| 2026-04-28 11:59 | 48.53438 | 1.26243 | 38083 ft | 456 kts | 17° |
| 2026-04-28 11:59 | 48.59448 | 1.29309 | 38082 ft | 455 kts | 16° |
| 2026-04-28 12:00 | 48.65449 | 1.32323 | 38088 ft | 454 kts | 16° |
| 2026-04-28 12:00 | 48.71435 | 1.35338 | 38090 ft | 453 kts | 16° |
| 2026-04-28 12:01 | 48.77414 | 1.38363 | 38090 ft | 453 kts | 16° |
| 2026-04-28 12:01 | 48.83390 | 1.41399 | 38091 ft | 452 kts | 17° |
| 2026-04-28 12:02 | 48.89357 | 1.44439 | 38103 ft | 452 kts | 16° |
| 2026-04-28 12:02 | 48.95267 | 1.47745 | 38091 ft | 455 kts | 26° |
| 2026-04-28 12:03 | 49.00423 | 1.53349 | 38093 ft | 459 kts | 44° |
| 2026-04-28 12:03 | 49.04694 | 1.60595 | 38101 ft | 460 kts | 48° |
| 2026-04-28 12:04 | 49.08888 | 1.67977 | 38102 ft | 461 kts | 47° |
| 2026-04-28 12:04 | 49.13120 | 1.75325 | 38098 ft | 461 kts | 47° |
| 2026-04-28 12:05 | 49.17376 | 1.82660 | 38110 ft | 462 kts | 47° |
| 2026-04-28 12:05 | 49.20920 | 1.88772 | 38102 ft | 462 kts | 47° |
| 2026-04-28 12:06 | 49.25862 | 1.97326 | 38112 ft | 462 kts | 47° |
| 2026-04-28 12:06 | 49.29428 | 2.03518 | 38121 ft | 463 kts | 47° |
| 2026-04-28 12:07 | 49.33689 | 2.10933 | 38123 ft | 463 kts | 47° |
| 2026-04-28 12:07 | 49.38625 | 2.19552 | 38130 ft | 462 kts | 48° |
| 2026-04-28 12:08 | 49.42156 | 2.25740 | 38123 ft | 457 kts | 48° |
| 2026-04-28 12:08 | 49.46320 | 2.33053 | 38118 ft | 453 kts | 48° |
| 2026-04-28 12:09 | 49.50416 | 2.40267 | 38114 ft | 449 kts | 48° |
| 2026-04-28 12:09 | 49.54578 | 2.47503 | 38118 ft | 449 kts | 44° |
| 2026-04-28 12:10 | 49.59523 | 2.53237 | 38139 ft | 450 kts | 31° |
| 2026-04-28 12:10 | 49.64887 | 2.58312 | 38132 ft | 455 kts | 31° |
| 2026-04-28 12:11 | 49.70291 | 2.63454 | 38130 ft | 457 kts | 31° |
| 2026-04-28 12:11 | 49.75687 | 2.68680 | 38123 ft | 458 kts | 32° |
| 2026-04-28 12:12 | 49.81091 | 2.73960 | 37742 ft | 463 kts | 32° |
| 2026-04-28 12:12 | 49.83814 | 2.76629 | 37262 ft | 461 kts | 32° |
| 2026-04-28 12:12 | 49.86522 | 2.79286 | 36687 ft | 460 kts | 32° |
| 2026-04-28 12:13 | 49.89214 | 2.81929 | 36252 ft | 456 kts | 33° |
| 2026-04-28 12:13 | 49.91883 | 2.84552 | 35826 ft | 453 kts | 33° |
| 2026-04-28 12:13 | 49.94540 | 2.87167 | 35405 ft | 450 kts | 33° |
| 2026-04-28 12:13 | 49.97175 | 2.89762 | 34972 ft | 447 kts | 33° |
| 2026-04-28 12:14 | 49.99796 | 2.92348 | 34540 ft | 445 kts | 33° |
| 2026-04-28 12:14 | 50.02399 | 2.94920 | 34105 ft | 443 kts | 33° |
| 2026-04-28 12:14 | 50.04996 | 2.97491 | 33610 ft | 441 kts | 33° |
| 2026-04-28 12:14 | 50.07573 | 3.00045 | 33161 ft | 438 kts | 33° |
| 2026-04-28 12:15 | 50.10146 | 3.02597 | 32726 ft | 435 kts | 33° |
| 2026-04-28 12:15 | 50.12688 | 3.05122 | 32317 ft | 432 kts | 33° |
| 2026-04-28 12:15 | 50.15208 | 3.07629 | 31905 ft | 429 kts | 33° |
| 2026-04-28 12:15 | 50.17715 | 3.10124 | 31509 ft | 426 kts | 33° |
| 2026-04-28 12:16 | 50.20203 | 3.12604 | 31111 ft | 423 kts | 33° |
| 2026-04-28 12:16 | 50.22684 | 3.15049 | 30712 ft | 421 kts | 30° |
| 2026-04-28 12:16 | 50.25296 | 3.17091 | 30289 ft | 419 kts | 24° |
| 2026-04-28 12:16 | 50.27959 | 3.18924 | 29829 ft | 417 kts | 23° |
| 2026-04-28 12:17 | 50.30609 | 3.20709 | 29384 ft | 413 kts | 23° |
| 2026-04-28 12:17 | 50.33231 | 3.22492 | 28981 ft | 409 kts | 24° |
| 2026-04-28 12:17 | 50.35822 | 3.24285 | 28567 ft | 405 kts | 24° |
| 2026-04-28 12:17 | 50.38378 | 3.26073 | 28163 ft | 401 kts | 24° |
| 2026-04-28 12:18 | 50.40918 | 3.27861 | 27744 ft | 399 kts | 25° |
| 2026-04-28 12:18 | 50.43404 | 3.29756 | 27343 ft | 395 kts | 27° |
| 2026-04-28 12:18 | 50.45843 | 3.31711 | 26932 ft | 392 kts | 28° |
| 2026-04-28 12:18 | 50.48265 | 3.33646 | 26538 ft | 390 kts | 27° |
| 2026-04-28 12:19 | 50.50679 | 3.35554 | 26141 ft | 387 kts | 27° |
| 2026-04-28 12:19 | 50.53101 | 3.37383 | 25739 ft | 385 kts | 25° |
| 2026-04-28 12:19 | 50.55544 | 3.39082 | 25342 ft | 384 kts | 24° |
| 2026-04-28 12:19 | 50.57962 | 3.40714 | 24957 ft | 382 kts | 24° |
| 2026-04-28 12:20 | 50.60435 | 3.42379 | 24536 ft | 381 kts | 24° |
| 2026-04-28 12:20 | 50.62868 | 3.44026 | 24137 ft | 380 kts | 25° |
| 2026-04-28 12:20 | 50.65291 | 3.45678 | 23717 ft | 379 kts | 25° |
| 2026-04-28 12:20 | 50.67674 | 3.47313 | 23264 ft | 377 kts | 25° |
| 2026-04-28 12:21 | 50.70069 | 3.48963 | 22843 ft | 375 kts | 25° |
| 2026-04-28 12:21 | 50.72450 | 3.50606 | 22448 ft | 372 kts | 25° |
| 2026-04-28 12:21 | 50.74818 | 3.52244 | 22037 ft | 370 kts | 25° |
| 2026-04-28 12:21 | 50.77159 | 3.53866 | 21651 ft | 367 kts | 26° |
| 2026-04-28 12:22 | 50.79495 | 3.55489 | 21261 ft | 365 kts | 26° |
| 2026-04-28 12:22 | 50.81816 | 3.57099 | 20877 ft | 362 kts | 26° |
| 2026-04-28 12:22 | 50.84112 | 3.58693 | 20498 ft | 359 kts | 26° |
| 2026-04-28 12:22 | 50.86392 | 3.60277 | 20127 ft | 357 kts | 26° |
| 2026-04-28 12:23 | 50.88663 | 3.61857 | 19745 ft | 355 kts | 26° |
| 2026-04-28 12:23 | 50.90964 | 3.63266 | 19369 ft | 356 kts | 18° |
| 2026-04-28 12:23 | 50.93406 | 3.63963 | 18908 ft | 359 kts | 5° |
| 2026-04-28 12:23 | 50.95896 | 3.64156 | 18516 ft | 358 kts | 3° |
| 2026-04-28 12:24 | 50.98388 | 3.64275 | 18084 ft | 357 kts | 3° |
| 2026-04-28 12:24 | 51.00862 | 3.64386 | 17693 ft | 354 kts | 4° |
| 2026-04-28 12:24 | 51.03314 | 3.64509 | 17312 ft | 351 kts | 4° |
| 2026-04-28 12:24 | 51.05745 | 3.64647 | 16941 ft | 348 kts | 4° |
| 2026-04-28 12:25 | 51.08157 | 3.64795 | 16577 ft | 345 kts | 5° |
| 2026-04-28 12:25 | 51.10541 | 3.64946 | 16216 ft | 342 kts | 4° |
| 2026-04-28 12:25 | 51.12915 | 3.65100 | 15859 ft | 340 kts | 5° |
| 2026-04-28 12:25 | 51.15265 | 3.65254 | 15503 ft | 337 kts | 5° |
| 2026-04-28 12:26 | 51.17574 | 3.65404 | 15157 ft | 335 kts | 5° |
| 2026-04-28 12:26 | 51.19895 | 3.65559 | 14815 ft | 333 kts | 5° |
| 2026-04-28 12:26 | 51.22198 | 3.65727 | 14451 ft | 330 kts | 9° |
| 2026-04-28 12:26 | 51.24387 | 3.66728 | 14167 ft | 317 kts | 31° |
| 2026-04-28 12:27 | 51.26160 | 3.68561 | 14126 ft | 302 kts | 39° |
| 2026-04-28 12:27 | 51.27852 | 3.70515 | 13835 ft | 299 kts | 40° |
| 2026-04-28 12:27 | 51.29522 | 3.72474 | 13470 ft | 298 kts | 40° |
| 2026-04-28 12:27 | 51.31189 | 3.74413 | 13197 ft | 294 kts | 40° |
| 2026-04-28 12:28 | 51.32841 | 3.76336 | 12872 ft | 293 kts | 39° |
| 2026-04-28 12:28 | 51.34491 | 3.78242 | 12597 ft | 291 kts | 39° |
| 2026-04-28 12:28 | 51.36126 | 3.80126 | 12252 ft | 290 kts | 39° |
| 2026-04-28 12:28 | 51.37757 | 3.82002 | 11939 ft | 287 kts | 39° |
| 2026-04-28 12:29 | 51.40977 | 3.85706 | 11387 ft | 281 kts | 39° |
| 2026-04-28 12:29 | 51.42541 | 3.87509 | 11146 ft | 274 kts | 40° |
| 2026-04-28 12:29 | 51.44086 | 3.89295 | 10646 ft | 273 kts | 39° |
| 2026-04-28 12:30 | 51.45617 | 3.91066 | 10208 ft | 269 kts | 40° |
| 2026-04-28 12:30 | 51.47133 | 3.92826 | 9869 ft | 269 kts | 40° |
| 2026-04-28 12:30 | 51.48647 | 3.94583 | 9520 ft | 269 kts | 40° |
| 2026-04-28 12:30 | 51.50159 | 3.96336 | 9210 ft | 268 kts | 40° |
| 2026-04-28 12:31 | 51.51667 | 3.98085 | 8895 ft | 266 kts | 40° |
| 2026-04-28 12:31 | 51.53163 | 3.99823 | 8583 ft | 265 kts | 40° |
| 2026-04-28 12:31 | 51.54649 | 4.01551 | 8285 ft | 262 kts | 40° |
| 2026-04-28 12:31 | 51.56119 | 4.03259 | 8008 ft | 261 kts | 40° |
| 2026-04-28 12:32 | 51.57587 | 4.04974 | 7707 ft | 261 kts | 40° |
| 2026-04-28 12:32 | 51.59055 | 4.06686 | 7393 ft | 260 kts | 40° |
| 2026-04-28 12:32 | 51.60517 | 4.08395 | 7108 ft | 260 kts | 40° |
| 2026-04-28 12:32 | 51.61977 | 4.10103 | 6787 ft | 259 kts | 40° |
| 2026-04-28 12:33 | 51.63434 | 4.11801 | 6501 ft | 258 kts | 40° |
| 2026-04-28 12:33 | 51.64899 | 4.13472 | 6169 ft | 259 kts | 40° |
| 2026-04-28 12:33 | 51.66345 | 4.15180 | 5870 ft | 257 kts | 40° |
| 2026-04-28 12:33 | 51.67787 | 4.16881 | 5566 ft | 255 kts | 40° |
| 2026-04-28 12:34 | 51.69216 | 4.18563 | 5293 ft | 254 kts | 41° |
| 2026-04-28 12:34 | 51.70630 | 4.20225 | 5140 ft | 248 kts | 40° |
| 2026-04-28 12:34 | 51.72002 | 4.21836 | 5060 ft | 240 kts | 40° |
| 2026-04-28 12:34 | 51.73426 | 4.23184 | 4941 ft | 240 kts | 21° |
| 2026-04-28 12:35 | 51.75104 | 4.23414 | 4746 ft | 250 kts | 356° |
| 2026-04-28 12:35 | 51.76752 | 4.22440 | 4548 ft | 252 kts | 340° |
| 2026-04-28 12:35 | 51.78324 | 4.21255 | 4393 ft | 246 kts | 340° |
| 2026-04-28 12:35 | 51.79860 | 4.20155 | 4259 ft | 236 kts | 349° |
| 2026-04-28 12:36 | 51.81433 | 4.20051 | 4068 ft | 223 kts | 12° |
| 2026-04-28 12:36 | 51.82974 | 4.20351 | 3831 ft | 225 kts | 13° |
| 2026-04-28 12:36 | 51.84543 | 4.20655 | 3551 ft | 228 kts | 12° |
| 2026-04-28 12:36 | 51.86125 | 4.21027 | 3133 ft | 228 kts | 20° |
| 2026-04-28 12:37 | 51.87346 | 4.22471 | 2821 ft | 213 kts | 62° |
| 2026-04-28 12:37 | 51.87956 | 4.24535 | 2629 ft | 201 kts | 61° |
| 2026-04-28 12:37 | 51.88680 | 4.26420 | 2410 ft | 196 kts | 58° |
| 2026-04-28 12:37 | 51.89397 | 4.28203 | 2166 ft | 187 kts | 58° |
| 2026-04-28 12:38 | 51.90091 | 4.29951 | 1916 ft | 176 kts | 58° |
| 2026-04-28 12:38 | 51.90731 | 4.31563 | 1665 ft | 169 kts | 57° |
| 2026-04-28 12:38 | 51.91344 | 4.33106 | 1448 ft | 157 kts | 57° |
| 2026-04-28 12:38 | 51.91914 | 4.34539 | 1269 ft | 145 kts | 58° |
| 2026-04-28 12:39 | 51.92432 | 4.35842 | 1094 ft | 128 kts | 58° |
| 2026-04-28 12:39 | 51.92892 | 4.37002 | 884 ft | 115 kts | 55° |
| 2026-04-28 12:39 | 51.93296 | 4.38016 | 742 ft | 112 kts | 57° |
| 2026-04-28 12:39 | 51.93719 | 4.39081 | 621 ft | 114 kts | 57° |
| 2026-04-28 12:40 | 51.94165 | 4.40196 | 436 ft | 120 kts | 57° |
| 2026-04-28 12:40 | 51.94614 | 4.41318 | 275 ft | 118 kts | 57° |
| 2026-04-28 12:40 | 51.95061 | 4.42437 | 108 ft | 118 kts | 58° |
| 2026-04-28 12:40 | 51.95500 | 4.43536 | 2 ft | 110 kts | 57° |
| 2026-04-28 12:41 | 51.95813 | 4.44335 | -1 ft | 53 kts | 56° |
| 2026-04-28 12:41 | 51.95914 | 4.44622 | -2 ft | 17 kts | 95° |
| 2026-04-28 12:41 | 51.95851 | 4.44736 | 0 ft | 12 kts | 147° |
| 2026-04-28 12:41 | 51.95779 | 4.44737 | 0 ft | 12 kts | 235° |
| 2026-04-28 12:42 | 51.95732 | 4.44625 | 1 ft | 12 kts | 236° |
| 2026-04-28 12:42 | 51.95685 | 4.44510 | 0 ft | 13 kts | 237° |
| 2026-04-28 12:42 | 51.95641 | 4.44396 | 0 ft | 15 kts | 237° |
| 2026-04-28 12:42 | 51.95579 | 4.44242 | 0 ft | 17 kts | 237° |
| 2026-04-28 12:43 | 51.95513 | 4.44078 | 0 ft | 17 kts | 238° |
| 2026-04-28 12:43 | 51.95449 | 4.43920 | 0 ft | 16 kts | 237° |
| 2026-04-28 12:43 | 51.95389 | 4.43767 | 0 ft | 16 kts | 238° |
| 2026-04-28 12:43 | 51.95331 | 4.43619 | 0 ft | 15 kts | 237° |
| 2026-04-28 12:44 | 51.95269 | 4.43509 | 0 ft | 13 kts | 193° |
| 2026-04-28 12:44 | 51.95189 | 4.43568 | 0 ft | 13 kts | 147° |
| 2026-04-28 12:44 | 51.95129 | 4.43626 | 1 ft | 8 kts | 169° |
| 2026-04-28 12:44 | 51.95089 | 4.43567 | 0 ft | 8 kts | 236° |
| 2026-04-28 12:45 | 51.95058 | 4.43492 | 0 ft | 8 kts | 237° |
| 2026-04-28 12:45 | 51.95037 | 4.43426 | 0 ft | 5 kts | 267° |
| 2026-04-28 12:45 | 51.95057 | 4.43384 | 0 ft | 4 kts | 323° |
| 2026-04-28 12:45 | 51.95068 | 4.43370 | 0 ft | 1 kts | 325° |
| 2026-04-28 12:46 | 51.95069 | 4.43370 | 0 ft | 0 kts | 325° |